createdAt,value
2015-12-24T00:00:07.339Z,83.03
2015-12-24T00:00:19.729Z,83.22
2015-12-24T00:00:32.120Z,82.93
2015-12-24T00:00:44.495Z,82.46
2015-12-24T00:00:56.932Z,82.18
2015-12-24T00:01:09.357Z,82.56
2015-12-24T00:01:21.795Z,82.28
2015-12-24T00:01:34.170Z,82.37
2015-12-24T00:01:46.529Z,81.99
2015-12-24T00:01:58.639Z,81.8
2015-12-24T00:02:11.000Z,81.99
2015-12-24T00:02:23.344Z,81.99
2015-12-24T00:02:35.719Z,82.09
2015-12-24T00:02:48.125Z,81.23
2015-12-24T00:03:00.484Z,81.33
2015-12-24T00:03:12.830Z,81.52
2015-12-24T00:03:25.189Z,81.14
2015-12-24T00:03:37.611Z,81.23
2015-12-24T00:03:50.002Z,81.33
2015-12-24T00:04:02.377Z,81.23
2015-12-24T00:04:14.756Z,81.52
2015-12-24T00:04:27.147Z,81.71
2015-12-24T00:04:39.522Z,81.33
2015-12-24T00:04:51.912Z,81.14
2015-12-24T00:05:04.365Z,81.33
2015-12-24T00:05:16.789Z,81.14
2015-12-24T00:05:29.180Z,80.85
2015-12-24T00:05:41.602Z,80.57
2015-12-24T00:05:53.961Z,80.29
2015-12-24T00:06:06.308Z,80.19
2015-12-24T00:06:18.698Z,80.29
2015-12-24T00:06:31.136Z,80.19
2015-12-24T00:06:43.495Z,80.19
2015-12-24T00:06:55.839Z,80
2015-12-24T00:07:08.200Z,79.91
2015-12-24T00:07:19.857Z,80
2015-12-24T00:07:32.232Z,79.91
2015-12-24T00:07:44.622Z,79.91
2015-12-24T00:07:56.294Z,80.1
2015-12-24T00:08:08.657Z,80
2015-12-24T00:08:21.016Z,79.91
2015-12-24T00:08:33.438Z,80.19
2015-12-24T00:08:45.157Z,80.29
2015-12-24T00:08:57.563Z,80.19
2015-12-24T00:09:09.988Z,80.19
2015-12-24T00:09:22.410Z,79.91
2015-12-24T00:09:34.816Z,80.1
2015-12-24T00:09:46.535Z,80
2015-12-24T00:09:58.972Z,80
2015-12-24T00:10:11.366Z,80
2015-12-24T00:10:23.725Z,80
2015-12-24T00:10:36.069Z,80
2015-12-24T00:10:48.428Z,80
2015-12-24T00:11:00.788Z,80
2015-12-24T00:11:13.150Z,80.19
2015-12-24T00:11:25.556Z,80
2015-12-24T00:11:37.775Z,79.91
2015-12-24T00:11:50.181Z,79.63
2015-12-24T00:12:02.603Z,80
2015-12-24T00:12:14.980Z,79.16
2015-12-24T00:12:27.355Z,78.78
2015-12-24T00:12:39.793Z,78.5
2015-12-24T00:12:52.152Z,78.02
2015-12-24T00:13:04.543Z,77.93
2015-12-24T00:13:16.999Z,78.02
2015-12-24T00:13:29.452Z,77.55
2015-12-24T00:13:41.858Z,77.26
2015-12-24T00:13:54.233Z,77.17
2015-12-24T00:14:06.608Z,76.98
2015-12-24T00:14:19.002Z,76.79
2015-12-24T00:14:31.345Z,76.79
2015-12-24T00:14:43.549Z,76.61
2015-12-24T00:14:55.939Z,76.04
2015-12-24T00:15:08.283Z,76.32
2015-12-24T00:15:19.910Z,76.14
2015-12-24T00:15:31.629Z,76.04
2015-12-24T00:15:43.988Z,75.76
2015-12-24T00:15:56.347Z,75.66
2015-12-24T00:16:07.988Z,75.57
2015-12-24T00:16:20.351Z,75.47
2015-12-24T00:16:32.726Z,75.19
2015-12-24T00:16:45.101Z,74.53
2015-12-24T00:16:57.476Z,74.62
2015-12-24T00:17:09.945Z,74.34
2015-12-24T00:17:22.322Z,74.24
2015-12-24T00:17:34.713Z,73.77
2015-12-24T00:17:47.150Z,73.86
2015-12-24T00:17:59.557Z,73.96
2015-12-24T00:18:11.950Z,73.86
2015-12-24T00:18:24.388Z,73.96
2015-12-24T00:18:36.794Z,73.96
2015-12-24T00:18:49.169Z,73.58
2015-12-24T00:19:01.560Z,74.24
2015-12-24T00:19:13.938Z,74.05
2015-12-24T00:19:26.281Z,73.49
2015-12-24T00:19:38.641Z,73.58
2015-12-24T00:19:50.984Z,73.68
2015-12-24T00:20:03.375Z,74.15
2015-12-24T00:20:15.768Z,73.96
2015-12-24T00:20:28.111Z,73.77
2015-12-24T00:20:40.471Z,73.68
2015-12-24T00:20:52.908Z,72.73
2015-12-24T00:21:05.283Z,72.83
2015-12-24T00:21:17.661Z,72.73
2015-12-24T00:21:30.036Z,72.55
2015-12-24T00:21:42.489Z,72.26
2015-12-24T00:21:54.864Z,71.88
2015-12-24T00:22:07.286Z,71.88
2015-12-24T00:22:19.679Z,71.79
2015-12-24T00:22:32.085Z,71.22
2015-12-24T00:22:44.476Z,70.65
2015-12-24T00:22:56.820Z,70.47
2015-12-24T00:23:09.179Z,70.18
2015-12-24T00:23:21.573Z,70.09
2015-12-24T00:23:33.979Z,69.62
2015-12-24T00:23:46.323Z,69.52
2015-12-24T00:23:58.682Z,69.05
2015-12-24T00:24:11.041Z,68.86
2015-12-24T00:24:23.404Z,68.57
2015-12-24T00:24:35.763Z,68.29
2015-12-24T00:24:48.107Z,67.63
2015-12-24T00:25:00.513Z,67.16
2015-12-24T00:25:12.904Z,66.97
2015-12-24T00:25:25.282Z,66.78
2015-12-24T00:25:37.672Z,66.12
2015-12-24T00:25:50.063Z,66.03
2015-12-24T00:26:02.454Z,66.22
2015-12-24T00:26:14.875Z,66.03
2015-12-24T00:26:27.331Z,66.03
2015-12-24T00:26:39.752Z,66.03
2015-12-24T00:26:52.190Z,65.93
2015-12-24T00:27:04.565Z,65.93
2015-12-24T00:27:16.924Z,66.22
2015-12-24T00:27:29.288Z,66.41
2015-12-24T00:27:40.928Z,66.31
2015-12-24T00:27:53.288Z,66.47
2015-12-24T00:28:05.006Z,67.16
2015-12-24T00:28:17.381Z,66.97
2015-12-24T00:28:29.743Z,66.97
2015-12-24T00:28:42.102Z,66.97
2015-12-24T00:28:54.462Z,67.07
2015-12-24T00:29:06.805Z,67.16
2015-12-24T00:29:19.180Z,66.31
2015-12-24T00:29:31.605Z,66.22
2015-12-24T00:29:43.996Z,65.93
2015-12-24T00:29:56.386Z,66.03
2015-12-24T00:30:08.777Z,65.55
2015-12-24T00:30:21.215Z,65.74
2015-12-24T00:30:33.623Z,65.17
2015-12-24T00:30:46.013Z,65.46
2015-12-24T00:30:58.420Z,65.17
2015-12-24T00:31:10.826Z,64.51
2015-12-24T00:31:23.185Z,65.08
2015-12-24T00:31:35.563Z,64.79
2015-12-24T00:31:47.985Z,64.14
2015-12-24T00:32:00.329Z,64.51
2015-12-24T00:32:12.735Z,63.95
2015-12-24T00:32:25.188Z,63.85
2015-12-24T00:32:37.551Z,63.67
2015-12-24T00:32:49.926Z,63.76
2015-12-24T00:33:02.332Z,63.67
2015-12-24T00:33:14.691Z,63.85
2015-12-24T00:33:27.051Z,63.67
2015-12-24T00:33:39.491Z,63.67
2015-12-24T00:33:51.866Z,63.76
2015-12-24T00:34:04.257Z,63.48
2015-12-24T00:34:16.679Z,63.57
2015-12-24T00:34:29.069Z,63.48
2015-12-24T00:34:41.572Z,63.67
2015-12-24T00:34:53.979Z,63.76
2015-12-24T00:35:06.369Z,63.76
2015-12-24T00:35:18.760Z,63.57
2015-12-24T00:35:31.166Z,63.76
2015-12-24T00:35:43.544Z,64.23
2015-12-24T00:35:55.903Z,63.76
2015-12-24T00:36:08.263Z,64.04
2015-12-24T00:36:20.607Z,63.95
2015-12-24T00:36:32.997Z,64.14
2015-12-24T00:36:45.437Z,64.42
2015-12-24T00:36:57.796Z,64.04
2015-12-24T00:37:10.155Z,64.51
2015-12-24T00:37:22.515Z,64.42
2015-12-24T00:37:34.937Z,63.85
2015-12-24T00:37:47.362Z,63.67
2015-12-24T00:37:59.737Z,63.85
2015-12-24T00:38:12.143Z,63.76
2015-12-24T00:38:24.549Z,63.76
2015-12-24T00:38:36.940Z,63.38
2015-12-24T00:38:49.364Z,63.38
2015-12-24T00:39:01.817Z,63.19
2015-12-24T00:39:14.223Z,63
2015-12-24T00:39:26.567Z,63
2015-12-24T00:39:39.004Z,63
2015-12-24T00:39:51.382Z,63.19
2015-12-24T00:40:03.742Z,62.91
2015-12-24T00:40:16.085Z,62.72
2015-12-24T00:40:28.492Z,62.62
2015-12-24T00:40:40.929Z,62.72
2015-12-24T00:40:53.291Z,62.53
2015-12-24T00:41:05.682Z,62.34
2015-12-24T00:41:18.104Z,62.25
2015-12-24T00:41:30.463Z,62.15
2015-12-24T00:41:42.838Z,62.06
2015-12-24T00:41:55.294Z,62.25
2015-12-24T00:42:07.669Z,61.96
2015-12-24T00:42:20.044Z,61.77
2015-12-24T00:42:32.529Z,61.77
2015-12-24T00:42:44.982Z,62.06
2015-12-24T00:42:57.360Z,61.87
2015-12-24T00:43:09.797Z,62.06
2015-12-24T00:43:22.204Z,61.87
2015-12-24T00:43:34.563Z,61.68
2015-12-24T00:43:46.954Z,61.68
2015-12-24T00:43:59.378Z,61.58
2015-12-24T00:44:11.737Z,61.3
2015-12-24T00:44:24.112Z,61.4
2015-12-24T00:44:36.471Z,60.93
2015-12-24T00:44:48.849Z,61.02
2015-12-24T00:45:01.193Z,60.93
2015-12-24T00:45:13.552Z,60.74
2015-12-24T00:45:25.943Z,60.46
2015-12-24T00:45:38.349Z,60.36
2015-12-24T00:45:50.743Z,60.64
2015-12-24T00:46:03.102Z,60.74
2015-12-24T00:46:15.555Z,60.64
2015-12-24T00:46:27.977Z,60.83
2015-12-24T00:46:40.337Z,61.02
2015-12-24T00:46:52.776Z,60.93
2015-12-24T00:47:05.245Z,60.74
2015-12-24T00:47:17.651Z,60.71
2015-12-24T00:47:30.011Z,60.83
2015-12-24T00:47:42.370Z,60.64
2015-12-24T00:47:54.717Z,60.36
2015-12-24T00:48:07.107Z,60.64
2015-12-24T00:48:19.529Z,60.55
2015-12-24T00:48:31.889Z,60.46
2015-12-24T00:48:44.248Z,60.55
2015-12-24T00:48:56.705Z,60.46
2015-12-24T00:49:09.064Z,60.46
2015-12-24T00:49:21.424Z,60.55
2015-12-24T00:49:33.814Z,60.17
2015-12-24T00:49:46.189Z,60.46
2015-12-24T00:49:58.551Z,60.64
2015-12-24T00:50:11.035Z,60.36
2015-12-24T00:50:23.410Z,60.93
2015-12-24T00:50:35.801Z,60.36
2015-12-24T00:50:48.191Z,60.46
2015-12-24T00:51:00.616Z,60.46
2015-12-24T00:51:13.085Z,59.89
2015-12-24T00:51:25.444Z,59.98
2015-12-24T00:51:37.804Z,59.86
2015-12-24T00:51:50.163Z,59.79
2015-12-24T00:52:02.525Z,59.79
2015-12-24T00:52:14.868Z,59.98
2015-12-24T00:52:27.259Z,59.7
2015-12-24T00:52:39.650Z,59.6
2015-12-24T00:52:52.009Z,59.89
2015-12-24T00:53:04.387Z,59.51
2015-12-24T00:53:16.762Z,59.7
2015-12-24T00:53:29.121Z,59.95
2015-12-24T00:53:41.496Z,60.08
2015-12-24T00:53:53.871Z,59.98
2015-12-24T00:54:06.249Z,60.17
2015-12-24T00:54:17.968Z,60.55
2015-12-24T00:54:30.390Z,60.71
2015-12-24T00:54:42.781Z,61.21
2015-12-24T00:54:55.187Z,61.3
2015-12-24T00:55:07.596Z,61.46
2015-12-24T00:55:19.940Z,61.58
2015-12-24T00:55:32.299Z,61.77
2015-12-24T00:55:44.659Z,61.93
2015-12-24T00:55:57.002Z,62.12
2015-12-24T00:56:09.411Z,62.44
2015-12-24T00:56:21.786Z,62.15
2015-12-24T00:56:34.145Z,62.25
2015-12-24T00:56:46.504Z,62.4
2015-12-24T00:56:58.879Z,62.5
2015-12-24T00:57:11.226Z,62.31
2015-12-24T00:57:23.664Z,62.21
2015-12-24T00:57:36.039Z,62.31
2015-12-24T00:57:48.414Z,62.02
2015-12-24T00:58:00.070Z,62.12
2015-12-24T00:58:11.776Z,62.02
2015-12-24T00:58:24.167Z,62.15
2015-12-24T00:58:36.573Z,62.02
2015-12-24T00:58:48.932Z,62.02
2015-12-24T00:59:01.292Z,62.02
2015-12-24T00:59:12.935Z,61.87
2015-12-24T00:59:25.295Z,61.93
2015-12-24T00:59:37.654Z,61.77
2015-12-24T00:59:50.060Z,61.74
2015-12-24T01:00:02.420Z,61.46
2015-12-24T01:00:14.781Z,61.36
2015-12-24T01:00:27.156Z,61.27
2015-12-24T01:00:39.515Z,60.71
2015-12-24T01:00:51.718Z,61.18
2015-12-24T01:01:04.093Z,60.99
2015-12-24T01:01:16.518Z,60.71
2015-12-24T01:01:28.909Z,60.61
2015-12-24T01:01:41.268Z,60.52
2015-12-24T01:01:53.675Z,60.33
2015-12-24T01:02:06.099Z,60.52
2015-12-24T01:02:18.474Z,60.52
2015-12-24T01:02:30.881Z,60.42
2015-12-24T01:02:43.271Z,60.42
2015-12-24T01:02:55.693Z,59.95
2015-12-24T01:03:08.055Z,59.86
2015-12-24T01:03:20.430Z,59.86
2015-12-24T01:03:32.789Z,60.05
2015-12-24T01:03:45.164Z,59.86
2015-12-24T01:03:57.586Z,59.95
2015-12-24T01:04:09.963Z,59.76
2015-12-24T01:04:22.338Z,59.86
2015-12-24T01:04:34.713Z,60.05
2015-12-24T01:04:47.103Z,59.86
2015-12-24T01:04:59.463Z,59.86
2015-12-24T01:05:11.873Z,59.86
2015-12-24T01:05:24.248Z,59.86
2015-12-24T01:05:36.623Z,59.86
2015-12-24T01:05:48.982Z,59.86
2015-12-24T01:06:01.373Z,59.86
2015-12-24T01:06:13.767Z,59.76
2015-12-24T01:06:26.157Z,60.14
2015-12-24T01:06:38.564Z,60.24
2015-12-24T01:06:50.939Z,60.24
2015-12-24T01:07:03.376Z,60.52
2015-12-24T01:07:15.722Z,60.42
2015-12-24T01:07:28.081Z,60.42
2015-12-24T01:07:40.456Z,60.42
2015-12-24T01:07:52.816Z,60.52
2015-12-24T01:08:05.175Z,60.42
2015-12-24T01:08:17.553Z,60.42
2015-12-24T01:08:29.819Z,60.05
2015-12-24T01:08:42.178Z,60.33
2015-12-24T01:08:54.553Z,59.95
2015-12-24T01:09:06.944Z,60.14
2015-12-24T01:09:19.383Z,59.76
2015-12-24T01:09:31.774Z,59.19
2015-12-24T01:09:44.164Z,59.19
2015-12-24T01:09:56.571Z,59.48
2015-12-24T01:10:08.805Z,59.38
2015-12-24T01:10:21.214Z,59.48
2015-12-24T01:10:33.667Z,59.19
2015-12-24T01:10:46.058Z,59.29
2015-12-24T01:10:58.402Z,59.29
2015-12-24T01:11:10.748Z,59
2015-12-24T01:11:23.108Z,59
2015-12-24T01:11:35.545Z,58.72
2015-12-24T01:11:47.905Z,58.72
2015-12-24T01:12:00.264Z,58.63
2015-12-24T01:12:12.611Z,58.63
2015-12-24T01:12:24.986Z,58.34
2015-12-24T01:12:37.330Z,58.34
2015-12-24T01:12:49.720Z,57.87
2015-12-24T01:13:02.173Z,57.97
2015-12-24T01:13:14.536Z,57.87
2015-12-24T01:13:26.926Z,57.97
2015-12-24T01:13:39.333Z,57.97
2015-12-24T01:13:51.723Z,57.97
2015-12-24T01:14:04.129Z,57.87
2015-12-24T01:14:15.803Z,57.97
2015-12-24T01:14:28.194Z,57.87
2015-12-24T01:14:40.538Z,57.97
2015-12-24T01:14:52.928Z,58.06
2015-12-24T01:15:05.319Z,58.34
2015-12-24T01:15:17.697Z,58.44
2015-12-24T01:15:30.088Z,58.72
2015-12-24T01:15:42.447Z,58.72
2015-12-24T01:15:54.791Z,58.72
2015-12-24T01:16:07.213Z,58.72
2015-12-24T01:16:19.622Z,58.63
2015-12-24T01:16:31.981Z,58.53
2015-12-24T01:16:44.341Z,58.82
2015-12-24T01:16:56.716Z,58.82
2015-12-24T01:17:09.091Z,59.1
2015-12-24T01:17:21.468Z,59
2015-12-24T01:17:33.827Z,59.1
2015-12-24T01:17:46.264Z,59
2015-12-24T01:17:58.671Z,59.19
2015-12-24T01:18:11.061Z,59.38
2015-12-24T01:18:23.471Z,59.38
2015-12-24T01:18:35.814Z,59.38
2015-12-24T01:18:48.158Z,59.48
2015-12-24T01:18:59.830Z,59.48
2015-12-24T01:19:12.221Z,59.57
2015-12-24T01:19:24.567Z,59.48
2015-12-24T01:19:36.927Z,59.48
2015-12-24T01:19:49.270Z,59.38
2015-12-24T01:20:01.661Z,59.38
2015-12-24T01:20:14.067Z,59.57
2015-12-24T01:20:26.430Z,59.48
2015-12-24T01:20:38.789Z,59.57
2015-12-24T01:20:51.133Z,59.57
2015-12-24T01:21:03.508Z,59.38
2015-12-24T01:21:15.883Z,59.19
2015-12-24T01:21:28.275Z,59.38
2015-12-24T01:21:40.666Z,59.67
2015-12-24T01:22:23.682Z,59.67
2015-12-24T01:22:36.045Z,59.86
2015-12-24T01:22:48.404Z,60.14
2015-12-24T01:23:00.764Z,60.24
2015-12-24T01:23:13.139Z,60.52
2015-12-24T01:23:25.483Z,60.52
2015-12-24T01:23:37.906Z,60.14
2015-12-24T01:23:50.297Z,60.24
2015-12-24T01:24:02.641Z,60.52
2015-12-24T01:24:15.016Z,60.61
2015-12-24T01:24:27.391Z,60.52
2015-12-24T01:24:39.768Z,60.61
2015-12-24T01:24:52.174Z,60.42
2015-12-24T01:25:04.612Z,60.42
2015-12-24T01:25:17.033Z,60.24
2015-12-24T01:25:29.408Z,60.61
2015-12-24T01:25:41.208Z,60.71
2015-12-24T01:25:53.583Z,60.61
2015-12-24T01:26:05.990Z,60.71
2015-12-24T01:26:18.349Z,60.71
2015-12-24T01:26:30.708Z,60.61
2015-12-24T01:26:43.056Z,60.71
2015-12-24T01:26:54.712Z,60.61
2015-12-24T01:27:07.072Z,60.89
2015-12-24T01:27:19.447Z,60.89
2015-12-24T01:27:31.822Z,60.71
2015-12-24T01:27:44.246Z,60.71
2015-12-24T01:27:56.621Z,60.71
2015-12-24T01:28:08.964Z,60.71
2015-12-24T01:28:21.339Z,60.71
2015-12-24T01:28:33.027Z,60.89
2015-12-24T01:28:45.404Z,60.8
2015-12-24T01:28:57.607Z,60.99
2015-12-24T01:29:10.013Z,60.99
2015-12-24T01:29:22.435Z,61.08
2015-12-24T01:29:34.826Z,60.8
2015-12-24T01:29:47.205Z,61.18
2015-12-24T01:29:59.611Z,60.8
2015-12-24T01:30:11.986Z,61.08
2015-12-24T01:30:24.377Z,61.27
2015-12-24T01:30:36.736Z,60.99
2015-12-24T01:30:49.097Z,60.8
2015-12-24T01:31:01.441Z,60.8
2015-12-24T01:31:13.800Z,60.71
2015-12-24T01:31:26.207Z,61.18
2015-12-24T01:31:38.629Z,61.27
2015-12-24T01:31:50.975Z,61.18
2015-12-24T01:32:03.335Z,60.99
2015-12-24T01:32:15.694Z,61.18
2015-12-24T01:32:28.053Z,61.46
2015-12-24T01:32:40.428Z,61.27
2015-12-24T01:32:52.135Z,61.46
2015-12-24T01:33:04.510Z,61.46
2015-12-24T01:33:16.978Z,61.65
2015-12-24T01:33:29.353Z,61.46
2015-12-24T01:33:41.744Z,61.65
2015-12-24T01:33:53.966Z,61.36
2015-12-24T01:34:06.356Z,61.18
2015-12-24T01:34:18.747Z,61.74
2015-12-24T01:34:31.153Z,61.74
2015-12-24T01:34:43.625Z,61.65
2015-12-24T01:34:55.984Z,61.55
2015-12-24T01:35:08.406Z,61.18
2015-12-24T01:35:20.797Z,61.36
2015-12-24T01:35:33.156Z,61.55
2015-12-24T01:35:45.517Z,61.46
2015-12-24T01:35:57.923Z,61.46
2015-12-24T01:36:10.267Z,61.36
2015-12-24T01:36:22.673Z,61.27
2015-12-24T01:36:35.063Z,61.65
2015-12-24T01:36:47.426Z,61.36
2015-12-24T01:36:59.785Z,61.18
2015-12-24T01:37:11.457Z,61.18
2015-12-24T01:37:23.832Z,60.99
2015-12-24T01:37:36.207Z,61.36
2015-12-24T01:37:48.679Z,61.27
2015-12-24T01:38:01.085Z,61.36
2015-12-24T01:38:13.491Z,61.27
2015-12-24T01:38:25.882Z,61.46
2015-12-24T01:38:38.288Z,61.36
2015-12-24T01:38:50.651Z,60.8
2015-12-24T01:39:02.994Z,60.99
2015-12-24T01:39:15.354Z,60.8
2015-12-24T01:39:27.744Z,61.08
2015-12-24T01:39:40.088Z,60.99
2015-12-24T01:39:52.434Z,60.89
2015-12-24T01:40:04.871Z,61.27
2015-12-24T01:40:17.231Z,61.27
2015-12-24T01:40:29.606Z,60.8
2015-12-24T01:40:41.949Z,60.89
2015-12-24T01:40:54.327Z,61.08
2015-12-24T01:41:06.781Z,61.08
2015-12-24T01:41:19.140Z,60.89
2015-12-24T01:41:31.515Z,60.61
2015-12-24T01:41:43.890Z,61.08
2015-12-24T01:41:56.268Z,60.71
2015-12-24T01:42:08.659Z,60.89
2015-12-24T01:42:21.065Z,60.89
2015-12-24T01:42:33.471Z,60.8
2015-12-24T01:42:45.893Z,60.71
2015-12-24T01:42:58.319Z,60.8
2015-12-24T01:43:10.694Z,60.61
2015-12-24T01:43:23.069Z,60.89
2015-12-24T01:43:35.413Z,60.61
2015-12-24T01:43:47.772Z,60.89
2015-12-24T01:44:00.165Z,60.61
2015-12-24T01:44:12.555Z,60.99
2015-12-24T01:44:24.915Z,60.71
2015-12-24T01:44:37.305Z,60.89
2015-12-24T01:44:49.727Z,60.99
2015-12-24T01:45:01.385Z,61.08
2015-12-24T01:45:13.745Z,60.99
2015-12-24T01:45:26.120Z,61.08
2015-12-24T01:45:38.495Z,60.89
2015-12-24T01:45:50.854Z,60.99
2015-12-24T01:46:03.310Z,61.36
2015-12-24T01:46:15.716Z,61.08
2015-12-24T01:46:28.107Z,61.18
2015-12-24T01:46:40.498Z,61.36
2015-12-24T01:46:52.888Z,61.36
2015-12-24T01:47:05.298Z,61.65
2015-12-24T01:47:17.704Z,61.36
2015-12-24T01:47:30.094Z,61.65
2015-12-24T01:47:42.438Z,61.74
2015-12-24T01:47:54.829Z,61.93
2015-12-24T01:48:07.238Z,61.93
2015-12-24T01:48:19.582Z,61.74
2015-12-24T01:48:31.957Z,61.84
2015-12-24T01:48:44.379Z,61.93
2015-12-24T01:48:56.769Z,62.02
2015-12-24T01:49:09.146Z,61.74
2015-12-24T01:49:21.506Z,62.02
2015-12-24T01:49:33.881Z,62.12
2015-12-24T01:49:46.303Z,62.21
2015-12-24T01:49:58.662Z,62.21
2015-12-24T01:50:11.103Z,62.12
2015-12-24T01:50:23.588Z,61.93
2015-12-24T01:50:35.260Z,62.02
2015-12-24T01:50:47.650Z,61.93
2015-12-24T01:51:00.072Z,61.93
2015-12-24T01:51:12.465Z,61.93
2015-12-24T01:51:24.871Z,61.74
2015-12-24T01:51:37.230Z,61.93
2015-12-24T01:51:49.590Z,61.93
2015-12-24T01:52:01.949Z,61.93
2015-12-24T01:52:14.327Z,61.93
2015-12-24T01:52:26.733Z,62.02
2015-12-24T01:52:39.140Z,62.21
2015-12-24T01:52:51.546Z,62.02
2015-12-24T01:53:03.893Z,62.21
2015-12-24T01:53:16.096Z,62.02
2015-12-24T01:53:28.455Z,62.02
2015-12-24T01:53:40.643Z,62.21
2015-12-24T01:53:53.065Z,62.12
2015-12-24T01:54:05.473Z,62.21
2015-12-24T01:54:17.848Z,62.31
2015-12-24T01:54:30.223Z,62.21
2015-12-24T01:54:42.629Z,62.21
2015-12-24T01:54:55.082Z,62.21
2015-12-24T01:55:07.523Z,62.12
2015-12-24T01:55:19.929Z,62.5
2015-12-24T01:55:32.304Z,62.5
2015-12-24T01:55:44.710Z,62.59
2015-12-24T01:55:57.054Z,62.5
2015-12-24T01:56:09.447Z,62.5
2015-12-24T01:56:21.853Z,62.5
2015-12-24T01:56:34.212Z,62.5
2015-12-24T01:56:46.603Z,62.59
2015-12-24T01:56:58.978Z,62.5
2015-12-24T01:57:11.341Z,62.5
2015-12-24T01:57:23.701Z,62.59
2015-12-24T01:57:36.076Z,62.69
2015-12-24T01:57:48.419Z,62.69
2015-12-24T01:58:00.779Z,62.69
2015-12-24T01:58:13.156Z,62.69
2015-12-24T01:58:25.531Z,62.69
2015-12-24T01:58:37.906Z,62.59
2015-12-24T01:58:50.281Z,62.88
2015-12-24T01:59:02.671Z,62.69
2015-12-24T01:59:15.049Z,62.78
2015-12-24T01:59:27.393Z,62.69
2015-12-24T01:59:39.752Z,62.69
2015-12-24T01:59:52.112Z,62.88
2015-12-24T02:00:04.471Z,62.97
2015-12-24T02:00:16.833Z,62.88
2015-12-24T02:00:29.239Z,62.88
2015-12-24T02:00:41.629Z,62.97
2015-12-24T02:00:54.004Z,62.78
2015-12-24T02:01:06.379Z,62.69
2015-12-24T02:01:18.742Z,62.59
2015-12-24T02:01:31.101Z,62.69
2015-12-24T02:01:43.492Z,62.59
2015-12-24T02:01:55.961Z,62.59
2015-12-24T02:02:08.353Z,62.69
2015-12-24T02:02:20.744Z,62.59
2015-12-24T02:02:33.150Z,62.5
2015-12-24T02:02:45.556Z,62.5
2015-12-24T02:02:58.041Z,62.5
2015-12-24T02:03:10.420Z,62.5
2015-12-24T02:03:22.810Z,62.5
2015-12-24T02:03:35.201Z,62.5
2015-12-24T02:03:47.560Z,62.5
2015-12-24T02:03:59.904Z,62.59
2015-12-24T02:04:12.282Z,62.5
2015-12-24T02:04:24.626Z,62.5
2015-12-24T02:04:36.985Z,62.5
2015-12-24T02:04:49.345Z,62.69
2015-12-24T02:05:01.704Z,62.69
2015-12-24T02:05:14.065Z,62.84
2015-12-24T02:05:26.425Z,62.78
2015-12-24T02:05:38.800Z,63.13
2015-12-24T02:05:51.237Z,63.07
2015-12-24T02:06:03.597Z,63.07
2015-12-24T02:06:15.975Z,63.26
2015-12-24T02:06:28.365Z,63.13
2015-12-24T02:06:40.756Z,63.35
2015-12-24T02:06:53.146Z,63.32
2015-12-24T02:07:05.537Z,63.32
2015-12-24T02:07:17.931Z,63.26
2015-12-24T02:07:30.290Z,63.32
2015-12-24T02:07:42.649Z,63.22
2015-12-24T02:07:55.009Z,63.35
2015-12-24T02:08:07.384Z,63.26
2015-12-24T02:08:19.745Z,63.26
2015-12-24T02:08:32.105Z,63.16
2015-12-24T02:08:44.464Z,62.94
2015-12-24T02:08:56.151Z,63.07
2015-12-24T02:09:08.526Z,62.78
2015-12-24T02:09:20.873Z,62.88
2015-12-24T02:09:33.233Z,62.78
2015-12-24T02:09:45.608Z,62.59
2015-12-24T02:09:57.983Z,62.47
2015-12-24T02:10:10.358Z,62.31
2015-12-24T02:10:22.751Z,62.12
2015-12-24T02:10:35.126Z,62.02
2015-12-24T02:10:47.517Z,61.93
2015-12-24T02:10:59.907Z,61.74
2015-12-24T02:11:12.314Z,61.46
2015-12-24T02:11:24.706Z,61.27
2015-12-24T02:11:37.081Z,61.18
2015-12-24T02:11:49.456Z,61.27
2015-12-24T02:12:01.800Z,60.8
2015-12-24T02:12:14.175Z,61.18
2015-12-24T02:12:26.523Z,60.99
2015-12-24T02:12:38.913Z,60.8
2015-12-24T02:12:51.273Z,60.61
2015-12-24T02:13:03.679Z,60.61
2015-12-24T02:13:16.054Z,60.61
2015-12-24T02:13:28.432Z,60.33
2015-12-24T02:13:40.776Z,60.89
2015-12-24T02:13:53.135Z,60.61
2015-12-24T02:14:05.495Z,60.24
2015-12-24T02:14:17.870Z,60.24
2015-12-24T02:14:30.247Z,60.52
2015-12-24T02:14:42.606Z,60.33
2015-12-24T02:14:55.043Z,60.42
2015-12-24T02:15:07.418Z,60.24
2015-12-24T02:15:19.825Z,60.05
2015-12-24T02:15:32.264Z,59.95
2015-12-24T02:15:44.733Z,59.67
2015-12-24T02:15:57.139Z,59.57
2015-12-24T02:16:09.483Z,59.48
2015-12-24T02:16:21.889Z,59.1
2015-12-24T02:16:34.253Z,59.29
2015-12-24T02:16:46.596Z,59.29
2015-12-24T02:16:59.003Z,59.48
2015-12-24T02:17:11.378Z,59.38
2015-12-24T02:17:23.737Z,59.38
2015-12-24T02:17:36.115Z,59.57
2015-12-24T02:17:48.474Z,59.38
2015-12-24T02:18:00.834Z,59.38
2015-12-24T02:18:13.209Z,59.38
2015-12-24T02:18:25.584Z,59.38
2015-12-24T02:18:37.993Z,59.57
2015-12-24T02:18:50.368Z,59.38
2015-12-24T02:19:02.743Z,59.29
2015-12-24T02:19:15.134Z,59.38
2015-12-24T02:19:27.524Z,59.38
2015-12-24T02:19:39.776Z,59.1
2015-12-24T02:19:52.167Z,59.38
2015-12-24T02:20:04.573Z,59.19
2015-12-24T02:20:16.932Z,59.19
2015-12-24T02:20:29.307Z,59.1
2015-12-24T02:20:41.670Z,59.19
2015-12-24T02:20:54.029Z,59.1
2015-12-24T02:21:06.389Z,59.1
2015-12-24T02:21:18.732Z,59.19
2015-12-24T02:21:31.092Z,59.29
2015-12-24T02:21:43.469Z,59.19
2015-12-24T02:21:55.844Z,59.1
2015-12-24T02:22:08.187Z,59.19
2015-12-24T02:22:20.547Z,59.19
2015-12-24T02:22:32.937Z,59.19
2015-12-24T02:22:45.315Z,59.19
2015-12-24T02:22:57.690Z,59.29
2015-12-24T02:23:10.050Z,59.1
2015-12-24T02:23:22.440Z,59.19
2015-12-24T02:23:34.831Z,59.19
2015-12-24T02:23:47.208Z,59.1
2015-12-24T02:23:59.614Z,59.29
2015-12-24T02:24:12.052Z,59.19
2015-12-24T02:24:24.474Z,59.19
2015-12-24T02:24:36.833Z,59
2015-12-24T02:24:49.181Z,59.38
2015-12-24T02:25:01.540Z,59.48
2015-12-24T02:25:13.915Z,59.29
2015-12-24T02:25:26.275Z,59.19
2015-12-24T02:25:38.650Z,59.19
2015-12-24T02:25:51.058Z,59.19
2015-12-24T02:26:03.417Z,59.29
2015-12-24T02:26:15.792Z,59.19
2015-12-24T02:26:28.167Z,59.1
2015-12-24T02:26:40.573Z,59.29
2015-12-24T02:26:52.951Z,59.1
2015-12-24T02:27:05.295Z,59.29
2015-12-24T02:27:17.655Z,59.1
2015-12-24T02:27:30.045Z,59.19
2015-12-24T02:27:42.517Z,58.91
2015-12-24T02:27:54.970Z,59
2015-12-24T02:28:07.376Z,59.19
2015-12-24T02:28:19.767Z,58.91
2015-12-24T02:28:32.220Z,59
2015-12-24T02:28:44.613Z,58.72
2015-12-24T02:28:56.956Z,58.72
2015-12-24T02:29:09.331Z,58.63
2015-12-24T02:29:21.706Z,58.72
2015-12-24T02:29:34.097Z,58.53
2015-12-24T02:29:46.522Z,58.44
2015-12-24T02:29:58.866Z,58.53
2015-12-24T02:30:11.225Z,58.44
2015-12-24T02:30:23.584Z,57.97
2015-12-24T02:30:35.959Z,57.87
2015-12-24T02:30:48.353Z,57.97
2015-12-24T02:31:00.759Z,57.97
2015-12-24T02:31:13.119Z,57.97
2015-12-24T02:31:25.494Z,58.06
2015-12-24T02:31:37.900Z,58.15
2015-12-24T02:31:50.308Z,57.97
2015-12-24T02:32:02.746Z,57.68
2015-12-24T02:32:15.136Z,57.59
2015-12-24T02:32:27.496Z,57.78
2015-12-24T02:32:39.855Z,57.68
2015-12-24T02:32:52.264Z,57.68
2015-12-24T02:33:04.655Z,57.78
2015-12-24T02:33:17.061Z,57.68
2015-12-24T02:33:29.421Z,57.68
2015-12-24T02:33:41.780Z,57.59
2015-12-24T02:33:54.159Z,57.59
2015-12-24T02:34:06.565Z,57.87
2015-12-24T02:34:18.956Z,57.78
2015-12-24T02:34:31.331Z,57.78
2015-12-24T02:34:43.706Z,57.4
2015-12-24T02:34:56.083Z,57.31
2015-12-24T02:35:08.442Z,57.31
2015-12-24T02:35:20.817Z,57.4
2015-12-24T02:35:33.208Z,57.5
2015-12-24T02:35:45.598Z,57.5
2015-12-24T02:35:57.976Z,57.5
2015-12-24T02:36:10.367Z,57.31
2015-12-24T02:36:22.758Z,57.5
2015-12-24T02:36:35.133Z,57.03
2015-12-24T02:36:47.492Z,56.93
2015-12-24T02:36:59.854Z,57.03
2015-12-24T02:37:12.214Z,57.03
2015-12-24T02:37:24.573Z,57.12
2015-12-24T02:37:36.933Z,56.65
2015-12-24T02:37:49.292Z,56.65
2015-12-24T02:38:01.639Z,56.65
2015-12-24T02:38:14.014Z,56.65
2015-12-24T02:38:26.373Z,56.46
2015-12-24T02:38:38.717Z,56.46
2015-12-24T02:38:51.092Z,56.17
2015-12-24T02:39:03.469Z,56.17
2015-12-24T02:39:15.828Z,55.89
2015-12-24T02:39:28.203Z,56.36
2015-12-24T02:39:40.594Z,55.98
2015-12-24T02:39:52.969Z,56.08
2015-12-24T02:40:05.362Z,56.55
2015-12-24T02:40:17.753Z,56.55
2015-12-24T02:40:30.144Z,56.46